Time;durP1;ratioP1;P1;durP2;ratioP2;P2;SDS_P1;SDS_P2;PMS_P1;PMS_P2;Temp;Humidity;BMP_temperature;BMP_pressure;BME280_temperature;BME280_humidity;BME280_pressure;Samples;Min_cycle;Max_cycle;Signal;HPM_P1;HPM_P2
2022/05/07 00:00:42;;;;;;;11.40;9.13;;;;;;;;;;5011384;28;20053;-66
2022/05/07 00:03:08;;;;;;;11.35;9.13;;;;;;;;;;5012547;28;20046;-66
2022/05/07 00:05:36;;;;;;;14.57;10.05;;;;;;;;;;5011288;28;20054;-68
2022/05/07 00:08:04;;;;;;;11.93;9.10;;;;;;;;;;5011384;28;20472;-67
2022/05/07 00:10:31;;;;;;;10.32;8.95;;;;;;;;;;5011799;28;20053;-66
2022/05/07 00:12:57;;;;;;;13.10;9.38;;;;;;;;;;5011192;28;20452;-67
2022/05/07 00:15:25;;;;;;;10.05;9.00;;;;;;;;;;5011223;28;20049;-67
2022/05/07 00:18:04;;;;;;;11.70;9.07;;;;;;;;;;5011286;28;20421;-66
2022/05/07 00:20:32;;;;;;;11.57;8.65;;;;;;;;;;5026145;28;20049;-66
2022/05/07 00:22:59;;;;;;;15.95;9.43;;;;;;;;;;5010871;28;20085;-66
2022/05/07 00:25:26;;;;;;;10.82;9.10;;;;;;;;;;5011177;28;20049;-67
2022/05/07 00:27:53;;;;;;;11.35;9.35;;;;;;;;;;5011274;28;20054;-66
2022/05/07 00:30:33;;;;;;;11.23;9.65;;;;;;;;;;5068790;28;20395;-64
2022/05/07 00:33:00;;;;;;;12.50;9.73;;;;;;;;;;5054942;28;20466;-65
2022/05/07 00:35:27;;;;;;;13.02;10.18;;;;;;;;;;5049557;28;20403;-64
2022/05/07 00:37:53;;;;;;;12.70;9.68;;;;;;;;;;5049267;28;20053;-64
2022/05/07 00:40:20;;;;;;;13.30;9.73;;;;;;;;;;5048923;28;20045;-66
2022/05/07 00:42:46;;;;;;;10.25;8.90;;;;;;;;;;5044339;28;20050;-66
2022/05/07 00:45:13;;;;;;;12.10;9.73;;;;;;;;;;5027656;28;20103;-66
2022/05/07 00:47:40;;;;;;;13.60;9.70;;;;;;;;;;5026393;28;20053;-66
2022/05/07 00:52:52;;;;;;;12.75;9.93;;;;;;;;;;5027674;28;20046;-66
2022/05/07 00:55:19;;;;;;;12.70;10.00;;;;;;;;;;5027950;28;20057;-67
2022/05/07 00:57:46;;;;;;;11.48;10.13;;;;;;;;;;5039556;28;20049;-66
2022/05/07 01:00:12;;;;;;;12.07;9.98;;;;;;;;;;5048714;28;20320;-66
2022/05/07 01:02:41;;;;;;;11.45;9.88;;;;;;;;;;5048543;28;20466;-66
2022/05/07 01:05:10;;;;;;;16.30;10.02;;;;;;;;;;5047382;28;20072;-66
2022/05/07 01:07:36;;;;;;;10.45;9.23;;;;;;;;;;5064225;28;20507;-66
2022/05/07 01:10:04;;;;;;;11.77;10.18;;;;;;;;;;5048322;28;20385;-67
2022/05/07 01:12:30;;;;;;;11.52;9.43;;;;;;;;;;5047104;28;20049;-66
2022/05/07 01:14:58;;;;;;;11.45;9.70;;;;;;;;;;5047195;28;20091;-66
2022/05/07 01:17:25;;;;;;;10.90;9.55;;;;;;;;;;5048201;28;20057;-66
2022/05/07 01:19:53;;;;;;;15.68;10.18;;;;;;;;;;5048975;28;20046;-67
2022/05/07 01:22:22;;;;;;;12.77;10.32;;;;;;;;;;5047924;28;20053;-67
2022/05/07 01:24:48;;;;;;;16.52;10.45;;;;;;;;;;5047105;28;20049;-66
2022/05/07 01:27:15;;;;;;;12.80;10.68;;;;;;;;;;5048493;28;20228;-66
2022/05/07 01:29:42;;;;;;;12.30;10.65;;;;;;;;;;5046727;28;20076;-66
2022/05/07 01:32:09;;;;;;;13.98;10.68;;;;;;;;;;5062423;22;20056;-68
2022/05/07 01:34:36;;;;;;;13.05;10.13;;;;;;;;;;5047267;28;20056;-68
2022/05/07 01:37:03;;;;;;;16.17;10.50;;;;;;;;;;5047859;28;20053;-68
2022/05/07 01:39:30;;;;;;;15.73;11.23;;;;;;;;;;5047899;28;20091;-69
2022/05/07 01:41:56;;;;;;;11.65;10.32;;;;;;;;;;5034327;28;20093;-68
2022/05/07 01:44:23;;;;;;;12.25;9.77;;;;;;;;;;5033277;28;20053;-68
2022/05/07 01:49:34;;;;;;;14.63;10.10;;;;;;;;;;5034299;28;20503;-68
2022/05/07 01:52:01;;;;;;;14.48;11.48;;;;;;;;;;5034225;28;20500;-68
2022/05/07 01:54:28;;;;;;;12.13;10.45;;;;;;;;;;5034127;28;20504;-68
2022/05/07 01:56:54;;;;;;;12.85;10.02;;;;;;;;;;5034596;28;20061;-68
2022/05/07 01:59:21;;;;;;;13.60;10.82;;;;;;;;;;5034448;28;20045;-68
2022/05/07 02:01:47;;;;;;;14.20;11.30;;;;;;;;;;5034107;28;20053;-68
2022/05/07 02:04:14;;;;;;;11.77;10.07;;;;;;;;;;5033923;28;20128;-68
2022/05/07 02:06:41;;;;;;;14.43;10.93;;;;;;;;;;5034256;28;20049;-68
2022/05/07 02:09:07;;;;;;;15.35;10.80;;;;;;;;;;5034166;28;20056;-68
2022/05/07 02:11:34;;;;;;;11.82;10.63;;;;;;;;;;5033853;28;20320;-68
2022/05/07 02:14:01;;;;;;;15.50;11.32;;;;;;;;;;5033831;28;20045;-68
2022/05/07 02:16:27;;;;;;;16.05;10.70;;;;;;;;;;5033856;28;20496;-68
2022/05/07 02:18:54;;;;;;;11.75;10.15;;;;;;;;;;5033770;28;20045;-68
2022/05/07 02:21:21;;;;;;;15.48;10.88;;;;;;;;;;5033852;28;20128;-68
2022/05/07 02:23:48;;;;;;;12.80;10.95;;;;;;;;;;5033889;28;20480;-68
2022/05/07 02:26:14;;;;;;;12.68;10.05;;;;;;;;;;5034065;28;20483;-68
2022/05/07 02:28:41;;;;;;;17.20;11.07;;;;;;;;;;5033644;28;20053;-68
2022/05/07 02:31:07;;;;;;;13.00;11.18;;;;;;;;;;5033868;28;20053;-68
2022/05/07 02:33:34;;;;;;;14.85;10.73;;;;;;;;;;5033326;28;20049;-68
2022/05/07 02:36:01;;;;;;;15.15;11.02;;;;;;;;;;5033490;28;20492;-68
2022/05/07 02:38:27;;;;;;;11.35;10.15;;;;;;;;;;5033647;28;20045;-68
2022/05/07 02:43:39;;;;;;;13.55;11.13;;;;;;;;;;5033365;28;20053;-69
2022/05/07 02:46:06;;;;;;;16.80;11.48;;;;;;;;;;5033278;28;20049;-68
2022/05/07 02:48:35;;;;;;;15.57;10.45;;;;;;;;;;5033325;28;20053;-68
2022/05/07 02:51:04;;;;;;;13.77;10.23;;;;;;;;;;5033184;28;20428;-68
2022/05/07 02:53:31;;;;;;;14.50;11.25;;;;;;;;;;5032015;28;20068;-68
2022/05/07 02:55:57;;;;;;;16.55;11.35;;;;;;;;;;5033107;28;20060;-69
2022/05/07 02:58:25;;;;;;;16.33;11.48;;;;;;;;;;5033170;28;20060;-68
2022/05/07 03:00:52;;;;;;;12.25;9.80;;;;;;;;;;5032838;28;20068;-68
2022/05/07 03:03:18;;;;;;;14.25;10.57;;;;;;;;;;5031924;28;20054;-68
2022/05/07 03:05:49;;;;;;;10.98;9.73;;;;;;;;;;5033094;28;20132;-68
2022/05/07 03:08:15;;;;;;;13.20;10.27;;;;;;;;;;5033115;28;20049;-68
2022/05/07 03:10:42;;;;;;;12.65;10.50;;;;;;;;;;5032713;28;20052;-68
2022/05/07 03:13:09;;;;;;;13.13;10.73;;;;;;;;;;5032671;28;20427;-68
2022/05/07 03:15:35;;;;;;;16.13;11.70;;;;;;;;;;5013155;28;20053;-68
2022/05/07 03:18:02;;;;;;;15.07;10.68;;;;;;;;;;5013146;28;20049;-68
2022/05/07 03:20:29;;;;;;;11.60;10.40;;;;;;;;;;5013315;28;20089;-68
2022/05/07 03:22:55;;;;;;;10.90;9.57;;;;;;;;;;5012715;28;20049;-69
2022/05/07 03:25:22;;;;;;;19.02;10.88;;;;;;;;;;5031039;28;20049;-68
2022/05/07 03:27:49;;;;;;;12.70;10.75;;;;;;;;;;5032467;28;20061;-68
2022/05/07 03:30:15;;;;;;;13.88;10.60;;;;;;;;;;5032613;28;20048;-68
2022/05/07 03:32:42;;;;;;;13.32;9.73;;;;;;;;;;5032332;28;20053;-68
2022/05/07 03:35:08;;;;;;;12.63;10.82;;;;;;;;;;5032375;28;20054;-68
2022/05/07 03:37:35;;;;;;;19.98;11.93;;;;;;;;;;5032386;28;20065;-68
2022/05/07 03:40:02;;;;;;;18.05;11.80;;;;;;;;;;5032877;28;20050;-68
2022/05/07 03:42:33;;;;;;;19.20;12.63;;;;;;;;;;5032067;28;20137;-69
2022/05/07 03:45:01;;;;;;;17.10;12.90;;;;;;;;;;5032327;28;20487;-68
2022/05/07 03:47:27;;;;;;;16.23;12.10;;;;;;;;;;5032441;28;20049;-68
2022/05/07 03:49:54;;;;;;;13.65;11.13;;;;;;;;;;5032097;28;20057;-69
2022/05/07 03:55:07;;;;;;;14.13;11.25;;;;;;;;;;5032354;28;20424;-69
2022/05/07 03:57:33;;;;;;;16.50;11.38;;;;;;;;;;5032298;28;20049;-68
2022/05/07 04:00:00;;;;;;;13.65;10.75;;;;;;;;;;5032052;28;20424;-68
2022/05/07 04:02:32;;;;;;;14.68;11.90;;;;;;;;;;5031782;28;20049;-68
2022/05/07 04:04:58;;;;;;;14.15;11.57;;;;;;;;;;5031974;28;20416;-68
2022/05/07 04:07:25;;;;;;;15.27;11.60;;;;;;;;;;5031800;28;20053;-68
2022/05/07 04:09:54;;;;;;;14.18;11.23;;;;;;;;;;5032047;28;20045;-68
2022/05/07 04:12:24;;;;;;;15.13;11.20;;;;;;;;;;5031672;28;20057;-68
2022/05/07 04:14:50;;;;;;;14.45;11.35;;;;;;;;;;5031869;28;20512;-68
2022/05/07 04:17:17;;;;;;;15.77;11.35;;;;;;;;;;5031540;28;20488;-69
2022/05/07 04:19:43;;;;;;;11.82;10.43;;;;;;;;;;5031794;28;20049;-68
2022/05/07 04:22:10;;;;;;;21.63;11.20;;;;;;;;;;5031703;28;20521;-68
2022/05/07 04:24:37;;;;;;;14.02;10.98;;;;;;;;;;5031588;28;20053;-68
2022/05/07 04:27:04;;;;;;;13.30;9.98;;;;;;;;;;5031867;28;20060;-68
2022/05/07 04:29:30;;;;;;;13.38;10.82;;;;;;;;;;5031814;28;20049;-68
2022/05/07 04:31:57;;;;;;;13.30;10.27;;;;;;;;;;5031392;28;20053;-68
2022/05/07 04:34:26;;;;;;;12.77;10.60;;;;;;;;;;5031309;28;20053;-68
2022/05/07 04:36:53;;;;;;;15.60;11.18;;;;;;;;;;5030291;28;20064;-68
2022/05/07 04:39:20;;;;;;;18.23;10.60;;;;;;;;;;5031749;28;20085;-68
2022/05/07 04:41:47;;;;;;;12.80;9.65;;;;;;;;;;5031578;28;20057;-68
2022/05/07 04:44:13;;;;;;;13.52;10.25;;;;;;;;;;5041584;28;20049;-69
2022/05/07 04:46:40;;;;;;;16.10;11.02;;;;;;;;;;5031713;28;20045;-68
2022/05/07 04:49:07;;;;;;;13.40;10.80;;;;;;;;;;5031493;28;20112;-68
2022/05/07 04:51:34;;;;;;;14.95;11.55;;;;;;;;;;5031583;28;20239;-68
2022/05/07 04:54:07;;;;;;;11.47;10.27;;;;;;;;;;5031472;28;20041;-68
2022/05/07 04:56:34;;;;;;;16.50;10.27;;;;;;;;;;5031351;28;20045;-68
2022/05/07 04:59:01;;;;;;;13.73;11.10;;;;;;;;;;5031107;28;20123;-68
2022/05/07 05:01:27;;;;;;;12.20;10.60;;;;;;;;;;5031039;28;20049;-69
2022/05/07 05:03:54;;;;;;;12.35;10.50;;;;;;;;;;5031538;28;20401;-68
2022/05/07 05:06:21;;;;;;;14.65;10.55;;;;;;;;;;5031301;28;20057;-69
2022/05/07 05:08:48;;;;;;;13.73;10.30;;;;;;;;;;5031475;28;20496;-69
2022/05/07 05:11:14;;;;;;;13.88;10.40;;;;;;;;;;5031359;28;20519;-69
2022/05/07 05:13:41;;;;;;;14.20;10.18;;;;;;;;;;5031587;28;20045;-69
2022/05/07 05:16:08;;;;;;;12.82;10.13;;;;;;;;;;5033335;28;20057;-69
2022/05/07 05:18:35;;;;;;;11.52;9.68;;;;;;;;;;5035035;28;20092;-69
2022/05/07 05:21:02;;;;;;;14.77;10.25;;;;;;;;;;5035200;28;20423;-69
2022/05/07 05:23:29;;;;;;;12.65;10.13;;;;;;;;;;5035254;28;20705;-69
2022/05/07 05:25:56;;;;;;;14.13;10.27;;;;;;;;;;5033726;28;20072;-69
2022/05/07 05:28:23;;;;;;;14.25;9.80;;;;;;;;;;5035222;28;20049;-69
2022/05/07 05:30:55;;;;;;;13.70;10.57;;;;;;;;;;5034931;28;20053;-69
2022/05/07 05:33:22;;;;;;;13.43;10.38;;;;;;;;;;5034658;28;20057;-68
2022/05/07 05:35:49;;;;;;;15.35;11.40;;;;;;;;;;5034892;28;20058;-68
2022/05/07 05:38:16;;;;;;;14.15;10.55;;;;;;;;;;5034672;28;20063;-67
2022/05/07 05:40:43;;;;;;;14.00;10.93;;;;;;;;;;5035037;28;20057;-69
2022/05/07 05:43:09;;;;;;;14.50;11.10;;;;;;;;;;5034696;28;20049;-69
2022/05/07 05:45:37;;;;;;;13.80;11.55;;;;;;;;;;5033510;28;20056;-66
2022/05/07 05:48:05;;;;;;;15.82;12.05;;;;;;;;;;5031816;28;20064;-68
2022/05/07 05:50:31;;;;;;;13.15;11.75;;;;;;;;;;5032380;28;20045;-68
2022/05/07 05:52:58;;;;;;;14.00;11.75;;;;;;;;;;5032576;28;20091;-68
2022/05/07 05:55:25;;;;;;;14.32;12.57;;;;;;;;;;5032585;28;20053;-68
2022/05/07 05:57:52;;;;;;;17.25;12.77;;;;;;;;;;5032304;28;20428;-68
2022/05/07 06:00:19;;;;;;;17.98;12.80;;;;;;;;;;5031749;28;20049;-68
2022/05/07 06:02:46;;;;;;;19.75;12.77;;;;;;;;;;5030977;28;20053;-67
2022/05/07 06:05:13;;;;;;;17.30;12.98;;;;;;;;;;5032302;28;20076;-67
2022/05/07 06:07:40;;;;;;;17.10;11.60;;;;;;;;;;5032233;28;20058;-67
2022/05/07 06:10:07;;;;;;;14.70;11.45;;;;;;;;;;5030747;28;20423;-67
2022/05/07 06:12:34;;;;;;;13.75;11.70;;;;;;;;;;5031605;28;20091;-68
2022/05/07 06:15:00;;;;;;;15.88;12.75;;;;;;;;;;5032371;28;20049;-67
2022/05/07 06:17:27;;;;;;;16.98;12.50;;;;;;;;;;5031850;28;20508;-67
2022/05/07 06:19:54;;;;;;;14.13;11.48;;;;;;;;;;5032263;28;20068;-67
2022/05/07 06:22:21;;;;;;;18.95;12.80;;;;;;;;;;5031655;28;20107;-68
2022/05/07 06:27:33;;;;;;;16.60;12.63;;;;;;;;;;5031335;28;20057;-67
2022/05/07 06:30:01;;;;;;;14.63;12.20;;;;;;;;;;5031590;28;20037;-68
2022/05/07 06:32:36;;;;;;;19.00;13.43;;;;;;;;;;5031328;28;20517;-68
2022/05/07 06:35:06;;;;;;;18.27;12.95;;;;;;;;;;5031770;28;20056;-68
2022/05/07 06:37:34;;;;;;;16.70;13.45;;;;;;;;;;5030708;28;20054;-67
2022/05/07 06:40:05;;;;;;;16.80;13.32;;;;;;;;;;5031044;28;20064;-67
2022/05/07 06:42:34;;;;;;;18.90;14.35;;;;;;;;;;5031247;28;20471;-67
2022/05/07 06:45:01;;;;;;;23.17;15.57;;;;;;;;;;5031453;28;20428;-68
2022/05/07 06:47:30;;;;;;;17.65;13.43;;;;;;;;;;5031431;28;20053;-68
2022/05/07 06:49:57;;;;;;;16.88;12.43;;;;;;;;;;5033038;28;20544;-68
2022/05/07 06:52:25;;;;;;;16.85;12.60;;;;;;;;;;5032015;28;20057;-68
2022/05/07 06:54:52;;;;;;;14.75;13.18;;;;;;;;;;5033237;28;20045;-67
2022/05/07 06:57:19;;;;;;;14.63;11.98;;;;;;;;;;5032564;28;20056;-68
2022/05/07 06:59:45;;;;;;;16.15;12.02;;;;;;;;;;5033154;28;20441;-67
2022/05/07 07:02:12;;;;;;;14.02;11.98;;;;;;;;;;5032957;28;20504;-66
2022/05/07 07:04:39;;;;;;;14.02;12.23;;;;;;;;;;5033195;28;20053;-66
2022/05/07 07:07:07;;;;;;;16.15;12.70;;;;;;;;;;5033423;28;20056;-67
2022/05/07 07:09:36;;;;;;;14.75;10.88;;;;;;;;;;5033340;28;20053;-67
2022/05/07 07:12:06;;;;;;;14.57;11.57;;;;;;;;;;5032771;28;20537;-67
2022/05/07 07:14:33;;;;;;;15.27;10.93;;;;;;;;;;5033016;28;20068;-66
2022/05/07 07:17:00;;;;;;;13.52;11.35;;;;;;;;;;5018504;28;20060;-65
2022/05/07 07:19:27;;;;;;;17.33;11.93;;;;;;;;;;5024836;28;20571;-64
2022/05/07 07:21:54;;;;;;;15.38;11.35;;;;;;;;;;5022050;28;20511;-66
2022/05/07 07:24:21;;;;;;;13.00;10.98;;;;;;;;;;5022308;28;20053;-65
2022/05/07 07:26:48;;;;;;;12.13;10.00;;;;;;;;;;5017743;28;20516;-65
2022/05/07 07:29:15;;;;;;;11.88;10.52;;;;;;;;;;5017639;28;20420;-67
2022/05/07 07:31:41;;;;;;;11.25;9.57;;;;;;;;;;5018361;28;20128;-67
2022/05/07 07:34:08;;;;;;;11.55;9.88;;;;;;;;;;5019383;28;20057;-67
2022/05/07 07:36:35;;;;;;;13.32;10.35;;;;;;;;;;5022161;28;20061;-67
2022/05/07 07:39:06;;;;;;;12.40;10.80;;;;;;;;;;5013967;22;20042;-72
2022/05/07 07:41:34;;;;;;;13.57;10.70;;;;;;;;;;5030482;28;20500;-70
2022/05/07 07:44:01;;;;;;;9.88;8.80;;;;;;;;;;5031349;28;20512;-69
2022/05/07 07:49:17;;;;;;;9.57;8.60;;;;;;;;;;5030990;28;20496;-68
2022/05/07 07:51:44;;;;;;;11.82;9.13;;;;;;;;;;5031287;28;20049;-71
2022/05/07 07:54:10;;;;;;;10.52;8.40;;;;;;;;;;5031187;28;20064;-69
2022/05/07 07:56:37;;;;;;;11.18;8.70;;;;;;;;;;5031649;28;20054;-69
2022/05/07 07:59:04;;;;;;;13.35;9.80;;;;;;;;;;5029934;28;20060;-69
2022/05/07 08:01:30;;;;;;;13.40;9.20;;;;;;;;;;5030924;28;20049;-69
2022/05/07 08:03:57;;;;;;;10.88;8.40;;;;;;;;;;5031020;28;20091;-69
2022/05/07 08:06:25;;;;;;;10.05;8.50;;;;;;;;;;5031438;28;20400;-68
2022/05/07 08:11:55;;;;;;;12.70;8.45;;;;;;;;;;5030825;28;20061;-69
2022/05/07 08:14:22;;;;;;;12.50;9.32;;;;;;;;;;5028960;28;20049;-69
2022/05/07 08:16:49;;;;;;;9.35;8.30;;;;;;;;;;5031151;28;20054;-69
2022/05/07 08:19:16;;;;;;;10.10;8.55;;;;;;;;;;5029801;28;20049;-69
2022/05/07 08:21:43;;;;;;;10.73;8.90;;;;;;;;;;5031218;28;20042;-69
2022/05/07 08:24:10;;;;;;;10.93;8.82;;;;;;;;;;5030943;28;20436;-69
2022/05/07 08:26:36;;;;;;;9.77;8.43;;;;;;;;;;5031185;28;20570;-69
2022/05/07 08:29:03;;;;;;;10.35;9.25;;;;;;;;;;5030551;28;20053;-69
2022/05/07 08:31:30;;;;;;;10.57;9.48;;;;;;;;;;5030930;28;20045;-69
2022/05/07 08:33:56;;;;;;;11.30;9.00;;;;;;;;;;5030311;28;20041;-69
2022/05/07 08:36:23;;;;;;;10.50;9.40;;;;;;;;;;5031078;28;20053;-69
2022/05/07 08:38:50;;;;;;;10.45;8.57;;;;;;;;;;5030517;28;20057;-69
2022/05/07 08:41:18;;;;;;;10.68;9.43;;;;;;;;;;5030624;28;20041;-69
2022/05/07 08:43:45;;;;;;;11.52;9.30;;;;;;;;;;5027450;28;20075;-69
2022/05/07 08:46:16;;;;;;;12.85;8.75;;;;;;;;;;5031021;28;20053;-68
2022/05/07 08:48:46;;;;;;;10.13;9.05;;;;;;;;;;5030510;28;20068;-69
2022/05/07 08:51:18;;;;;;;9.90;8.75;;;;;;;;;;5032653;28;20061;-69
2022/05/07 08:53:48;;;;;;;10.20;8.27;;;;;;;;;;5034989;28;20099;-69
2022/05/07 08:56:16;;;;;;;9.63;8.68;;;;;;;;;;5034979;28;20045;-69
2022/05/07 08:58:46;;;;;;;9.77;8.77;;;;;;;;;;5031190;28;20050;-69
2022/05/07 09:01:13;;;;;;;8.05;7.18;;;;;;;;;;5034013;28;20132;-69
2022/05/07 09:03:41;;;;;;;12.75;8.63;;;;;;;;;;5034519;28;20060;-69
2022/05/07 09:06:27;;;;;;;8.00;6.95;;;;;;;;;;5034753;28;20416;-69
2022/05/07 09:08:54;;;;;;;8.25;6.82;;;;;;;;;;5034048;28;20052;-69
2022/05/07 09:11:22;;;;;;;8.82;5.72;;;;;;;;;;5016395;28;20075;-69
2022/05/07 09:13:59;;;;;;;9.27;6.72;;;;;;;;;;5034600;28;20407;-69
2022/05/07 09:16:36;;;;;;;8.63;6.78;;;;;;;;;;5034239;28;20518;-69
2022/05/07 09:19:03;;;;;;;7.25;5.88;;;;;;;;;;5031777;28;20054;-69
2022/05/07 09:21:32;;;;;;;10.48;5.82;;;;;;;;;;5033064;28;20049;-69
2022/05/07 09:23:58;;;;;;;6.05;4.93;;;;;;;;;;5032496;28;20053;-69
2022/05/07 09:26:29;;;;;;;6.80;3.65;;;;;;;;;;5034315;28;20056;-69
2022/05/07 09:28:56;;;;;;;6.07;3.80;;;;;;;;;;5034287;28;20440;-69
2022/05/07 09:31:23;;;;;;;5.72;4.03;;;;;;;;;;5033941;28;20045;-69
2022/05/07 09:33:50;;;;;;;6.20;3.80;;;;;;;;;;5033780;28;20109;-69
2022/05/07 09:36:17;;;;;;;5.90;3.80;;;;;;;;;;5033956;28;20045;-67
2022/05/07 09:38:44;;;;;;;5.50;4.53;;;;;;;;;;5033493;28;20045;-67
2022/05/07 09:41:20;;;;;;;4.18;3.30;;;;;;;;;;5032756;28;20052;-67
2022/05/07 09:43:51;;;;;;;5.53;3.83;;;;;;;;;;5033205;28;20049;-67
2022/05/07 09:46:19;;;;;;;6.32;3.60;;;;;;;;;;5033723;28;20132;-67
2022/05/07 09:48:46;;;;;;;3.90;3.42;;;;;;;;;;5033681;28;20419;-67
2022/05/07 09:51:13;;;;;;;4.88;3.42;;;;;;;;;;5033152;28;20072;-66
2022/05/07 09:59:12;;;;;;;4.20;3.80;;;;;;;;;;5031305;28;20423;-66
2022/05/07 10:02:14;;;;;;;5.30;4.05;;;;;;;;;;5033762;28;20056;-66
2022/05/07 10:05:04;;;;;;;4.72;3.78;;;;;;;;;;5018354;28;20088;-66
2022/05/07 10:08:12;;;;;;;4.22;3.25;;;;;;;;;;5033050;28;20522;-66
2022/05/07 10:10:39;;;;;;;3.90;3.08;;;;;;;;;;4992321;28;20050;-66
2022/05/07 10:13:06;;;;;;;3.75;3.17;;;;;;;;;;5025639;28;20496;-66
2022/05/07 10:15:32;;;;;;;5.93;4.20;;;;;;;;;;5033468;28;20057;-66
2022/05/07 10:18:07;;;;;;;4.30;3.40;;;;;;;;;;5018918;28;20555;-66
2022/05/07 10:20:45;;;;;;;5.97;4.35;;;;;;;;;;5033427;28;20061;-66
2022/05/07 10:23:13;;;;;;;6.97;3.63;;;;;;;;;;5031783;28;20518;-66
2022/05/07 10:25:41;;;;;;;5.65;3.75;;;;;;;;;;5029651;28;20053;-67
2022/05/07 10:28:13;;;;;;;5.00;3.83;;;;;;;;;;5028972;28;20041;-67
2022/05/07 10:30:49;;;;;;;4.30;3.50;;;;;;;;;;5013655;28;20459;-67
2022/05/07 10:33:18;;;;;;;4.38;3.28;;;;;;;;;;5022790;28;20072;-67
2022/05/07 10:35:52;;;;;;;4.57;3.20;;;;;;;;;;5016635;28;20050;-67
2022/05/07 10:38:28;;;;;;;2.85;2.50;;;;;;;;;;5018915;28;20046;-66
2022/05/07 10:40:56;;;;;;;4.45;3.20;;;;;;;;;;5033710;28;20057;-66
2022/05/07 10:43:33;;;;;;;4.45;2.80;;;;;;;;;;5033502;28;20049;-66
2022/05/07 10:46:01;;;;;;;3.42;3.00;;;;;;;;;;5029566;28;20508;-67
2022/05/07 10:48:28;;;;;;;5.88;3.28;;;;;;;;;;5033456;28;20053;-67
2022/05/07 10:51:00;;;;;;;8.75;3.15;;;;;;;;;;5033064;28;20045;-67
2022/05/07 10:53:47;;;;;;;3.40;2.22;;;;;;;;;;5033167;28;20103;-66
2022/05/07 10:56:19;;;;;;;3.90;2.22;;;;;;;;;;5032902;28;20051;-66
2022/05/07 10:58:49;;;;;;;3.33;2.28;;;;;;;;;;5033034;28;20504;-66
2022/05/07 11:01:17;;;;;;;4.97;2.53;;;;;;;;;;5020998;28;20145;-66
2022/05/07 11:03:44;;;;;;;6.55;2.40;;;;;;;;;;5030978;28;20045;-66
2022/05/07 11:06:11;;;;;;;3.50;2.25;;;;;;;;;;5031580;28;20049;-65
2022/05/07 11:08:52;;;;;;;3.30;2.05;;;;;;;;;;5032999;28;20184;-66
2022/05/07 11:11:19;;;;;;;4.57;1.90;;;;;;;;;;5025724;28;20385;-65
2022/05/07 11:13:49;;;;;;;4.40;2.05;;;;;;;;;;5031584;28;20074;-66
2022/05/07 11:16:17;;;;;;;2.97;2.08;;;;;;;;;;5033172;28;20059;-66
2022/05/07 11:18:47;;;;;;;2.58;1.55;;;;;;;;;;5032663;28;20457;-66
2022/05/07 11:21:13;;;;;;;3.38;2.00;;;;;;;;;;5032628;28;20420;-67
2022/05/07 11:23:43;;;;;;;3.17;1.80;;;;;;;;;;5032834;28;20136;-66
2022/05/07 11:26:16;;;;;;;1.50;1.40;;;;;;;;;;5032886;28;20143;-66
2022/05/07 11:28:44;;;;;;;1.95;1.42;;;;;;;;;;5029381;28;20056;-66
2022/05/07 11:31:12;;;;;;;1.60;1.50;;;;;;;;;;5011573;28;20060;-66
2022/05/07 11:33:39;;;;;;;4.53;1.48;;;;;;;;;;5027299;28;20530;-66
2022/05/07 11:36:06;;;;;;;4.43;1.70;;;;;;;;;;5017926;28;20046;-66
2022/05/07 11:38:37;;;;;;;1.67;1.38;;;;;;;;;;5012738;28;20419;-66
2022/05/07 11:41:11;;;;;;;1.35;1.25;;;;;;;;;;5018264;28;20751;-66
2022/05/07 11:46:24;;;;;;;3.90;1.42;;;;;;;;;;5017449;28;20050;-66
2022/05/07 11:48:51;;;;;;;2.45;1.45;;;;;;;;;;5031384;28;20064;-66
2022/05/07 11:51:25;;;;;;;2.50;1.50;;;;;;;;;;5032124;28;20056;-65
2022/05/07 11:53:52;;;;;;;3.25;2.10;;;;;;;;;;5016337;28;20057;-66
2022/05/07 11:56:19;;;;;;;2.38;2.00;;;;;;;;;;5022404;28;20056;-66
2022/05/07 11:58:49;;;;;;;2.78;2.20;;;;;;;;;;5024741;28;20045;-65
2022/05/07 12:01:20;;;;;;;5.40;2.20;;;;;;;;;;5032130;28;20065;-65
2022/05/07 12:03:50;;;;;;;3.47;1.85;;;;;;;;;;5012461;28;20287;-66
2022/05/07 12:06:25;;;;;;;2.88;2.05;;;;;;;;;;5011508;28;20547;-66
2022/05/07 12:08:52;;;;;;;3.92;1.95;;;;;;;;;;5012737;28;20060;-65
2022/05/07 12:11:20;;;;;;;2.28;2.10;;;;;;;;;;5027137;28;20054;-66
2022/05/07 12:13:47;;;;;;;4.47;1.98;;;;;;;;;;5012383;28;20060;-65
2022/05/07 12:18:59;;;;;;;2.15;1.67;;;;;;;;;;5012035;28;20064;-65
2022/05/07 12:29:55;;;;;;;1.60;1.25;;;;;;;;;;5020190;28;20060;-65
2022/05/07 12:32:24;;;;;;;2.20;1.55;;;;;;;;;;5031513;28;20053;-66
2022/05/07 12:34:51;;;;;;;4.85;1.60;;;;;;;;;;5031945;28;20444;-66
2022/05/07 12:37:18;;;;;;;1.90;1.60;;;;;;;;;;5031555;28;20423;-66
2022/05/07 12:39:45;;;;;;;2.97;1.50;;;;;;;;;;5031551;28;20056;-66
2022/05/07 12:42:12;;;;;;;2.50;1.30;;;;;;;;;;5033520;28;20053;-66
2022/05/07 12:44:42;;;;;;;3.38;1.70;;;;;;;;;;5051658;28;20086;-65
2022/05/07 12:47:09;;;;;;;1.95;1.20;;;;;;;;;;5051797;28;20056;-65
2022/05/07 12:49:35;;;;;;;2.13;1.10;;;;;;;;;;5051544;28;20049;-65
2022/05/07 12:52:03;;;;;;;1.63;1.45;;;;;;;;;;5046456;28;20124;-65
2022/05/07 12:54:30;;;;;;;2.83;1.10;;;;;;;;;;5015295;28;20085;-65
2022/05/07 12:57:04;;;;;;;1.90;1.30;;;;;;;;;;5029760;28;20045;-65
2022/05/07 12:59:31;;;;;;;4.30;1.60;;;;;;;;;;5031396;28;20052;-65
2022/05/07 13:01:58;;;;;;;5.93;2.72;;;;;;;;;;5028544;28;20045;-66
2022/05/07 13:04:25;;;;;;;4.10;1.17;;;;;;;;;;5011317;28;20056;-72
2022/05/07 13:06:51;;;;;;;4.53;1.05;;;;;;;;;;5011693;28;20061;-66
2022/05/07 13:09:18;;;;;;;2.45;1.20;;;;;;;;;;5030555;28;20044;-66
2022/05/07 13:12:05;;;;;;;1.85;1.10;;;;;;;;;;5026289;28;20068;-69
2022/05/07 13:14:35;;;;;;;4.35;1.85;;;;;;;;;;5012862;28;20068;-68
2022/05/07 13:17:02;;;;;;;3.58;1.63;;;;;;;;;;5029534;28;20136;-67
2022/05/07 13:19:30;;;;;;;4.25;1.25;;;;;;;;;;5029381;28;20053;-67
2022/05/07 13:21:57;;;;;;;1.67;1.20;;;;;;;;;;5026317;28;20050;-66
2022/05/07 13:24:24;;;;;;;3.15;1.50;;;;;;;;;;5027379;28;20050;-68
2022/05/07 13:26:51;;;;;;;4.82;1.63;;;;;;;;;;5023128;28;20104;-66
2022/05/07 13:29:18;;;;;;;3.42;1.30;;;;;;;;;;5025156;28;20045;-66
2022/05/07 13:31:45;;;;;;;3.38;1.70;;;;;;;;;;5028422;28;20049;-64
2022/05/07 13:34:12;;;;;;;3.17;1.42;;;;;;;;;;5029530;28;20447;-64
2022/05/07 13:36:38;;;;;;;1.95;1.20;;;;;;;;;;5030592;28;20052;-65
2022/05/07 13:39:05;;;;;;;1.55;1.30;;;;;;;;;;5033809;28;20045;-64
2022/05/07 13:41:31;;;;;;;2.85;1.35;;;;;;;;;;5033632;28;20045;-61
2022/05/07 13:44:00;;;;;;;3.42;1.15;;;;;;;;;;5032332;28;20046;-61
2022/05/07 13:46:27;;;;;;;3.00;0.90;;;;;;;;;;5032973;28;20060;-62
2022/05/07 13:48:54;;;;;;;2.65;1.17;;;;;;;;;;5030112;28;20132;-63
2022/05/07 13:51:21;;;;;;;3.13;1.00;;;;;;;;;;5034125;28;20050;-64
2022/05/07 13:53:50;;;;;;;1.75;1.30;;;;;;;;;;5033341;28;20507;-64
2022/05/07 13:56:17;;;;;;;2.08;1.27;;;;;;;;;;5033721;28;20050;-65
2022/05/07 13:58:46;;;;;;;2.97;1.30;;;;;;;;;;5032896;28;20518;-65
2022/05/07 14:01:13;;;;;;;4.45;1.40;;;;;;;;;;5033382;28;20397;-65
2022/05/07 14:03:40;;;;;;;1.98;1.30;;;;;;;;;;5033060;28;20121;-65
2022/05/07 14:06:07;;;;;;;1.55;1.08;;;;;;;;;;5033215;28;20053;-65
2022/05/07 14:08:34;;;;;;;4.18;1.60;;;;;;;;;;5033331;28;20500;-65
2022/05/07 14:11:01;;;;;;;2.55;1.30;;;;;;;;;;5032311;28;20147;-65
2022/05/07 14:13:28;;;;;;;2.90;1.52;;;;;;;;;;5031777;28;20496;-65
2022/05/07 14:15:54;;;;;;;3.70;1.50;;;;;;;;;;5032189;28;20053;-65
2022/05/07 14:18:21;;;;;;;1.75;1.65;;;;;;;;;;5033441;28;20057;-64
2022/05/07 14:20:50;;;;;;;6.97;1.83;;;;;;;;;;5029467;28;20049;-65
2022/05/07 14:23:16;;;;;;;3.28;1.67;;;;;;;;;;5029669;28;20135;-65
2022/05/07 14:25:43;;;;;;;2.75;1.50;;;;;;;;;;5053759;22;20427;-65
2022/05/07 14:28:10;;;;;;;3.05;1.83;;;;;;;;;;5029560;28;20057;-65
2022/05/07 14:30:36;;;;;;;1.98;1.58;;;;;;;;;;5025160;28;20415;-65
2022/05/07 14:33:06;;;;;;;3.78;2.20;;;;;;;;;;5031090;28;20046;-65
2022/05/07 14:35:34;;;;;;;1.52;1.42;;;;;;;;;;5032522;28;20049;-65
2022/05/07 14:38:01;;;;;;;2.47;1.50;;;;;;;;;;5030512;28;20057;-65
2022/05/07 14:40:34;;;;;;;2.15;1.80;;;;;;;;;;5030316;28;20424;-64
2022/05/07 14:43:02;;;;;;;4.32;2.20;;;;;;;;;;5031519;28;20245;-65
2022/05/07 14:45:29;;;;;;;3.30;1.88;;;;;;;;;;5025647;28;20045;-65
2022/05/07 14:47:57;;;;;;;3.67;1.70;;;;;;;;;;5028182;28;20459;-64
2022/05/07 14:50:24;;;;;;;5.25;2.05;;;;;;;;;;5026761;28;20049;-64
2022/05/07 14:52:52;;;;;;;2.13;1.85;;;;;;;;;;5025898;28;20132;-65
2022/05/07 14:55:19;;;;;;;4.05;1.63;;;;;;;;;;5031658;28;20045;-65
2022/05/07 14:57:45;;;;;;;1.98;1.77;;;;;;;;;;5030896;28;20042;-65
2022/05/07 15:00:13;;;;;;;3.47;2.40;;;;;;;;;;5024842;28;20045;-64
2022/05/07 15:02:47;;;;;;;3.20;1.90;;;;;;;;;;5031267;28;20515;-65
2022/05/07 15:05:15;;;;;;;6.60;2.03;;;;;;;;;;5028014;28;20503;-65
2022/05/07 15:07:42;;;;;;;4.22;2.85;;;;;;;;;;5031999;28;20041;-65
2022/05/07 15:12:54;;;;;;;2.83;2.03;;;;;;;;;;5030054;28;20057;-65
2022/05/07 15:15:22;;;;;;;2.30;2.10;;;;;;;;;;5029195;28;20064;-65
2022/05/07 15:17:48;;;;;;;2.10;1.90;;;;;;;;;;5025399;28;20041;-73